Fishers, Indiana
Current Conditions -  °F | °C
As of 5:15 PM on Monday 20 Oct 2014 (Local Time) from KMQJ Reporting Station
Scattered Clouds Scattered Clouds  
Wind Chill: 66°   Ceiling: Unl
Heat Index: 66°   Visibility: 10mi
Dew Point: 36°   Wind: 13mph
Humidity: 32%   Direction: 280°W
Pressure: 29.84"   Gusts: 21mph
Location:  39.95°N, 86.02°W
Report Text: KMQJ 202115Z AUTO 28011G18KT 10SM SCT060 SCT075 19/02 A2984 RMK AO1
Loading
Personal Weather Stations






























Interactive Weather Map
Tropical Storm Tracking
New forecast layout! Learn more

10-Day Weather Forecast

Advertisements
Track Severe Weather on mobile